sensor_id;sensor_type;location;lat;lon;timestamp;pressure;altitude;pressure_sealevel;temperature;humidity
54872;BME280;43914;57.680;11.982;2023-03-19T00:01:29;100465.29;;;5.82;100.00
54872;BME280;43914;57.680;11.982;2023-03-19T00:03:55;100468.89;;;5.82;100.00
54872;BME280;43914;57.680;11.982;2023-03-19T00:06:20;100468.18;;;5.80;100.00
54872;BME280;43914;57.680;11.982;2023-03-19T00:08:47;100470.73;;;5.77;100.00
54872;BME280;43914;57.680;11.982;2023-03-19T00:11:12;100478.00;;;5.77;100.00
54872;BME280;43914;57.680;11.982;2023-03-19T00:13:39;100471.48;;;5.77;100.00
54872;BME280;43914;57.680;11.982;2023-03-19T00:16:05;100475.28;;;5.76;100.00
54872;BME280;43914;57.680;11.982;2023-03-19T00:18:31;100478.98;;;5.76;100.00
54872;BME280;43914;57.680;11.982;2023-03-19T00:21:00;100481.12;;;5.75;100.00
54872;BME280;43914;57.680;11.982;2023-03-19T00:23:26;100490.80;;;5.74;100.00
54872;BME280;43914;57.680;11.982;2023-03-19T00:25:53;100492.61;;;5.74;100.00
54872;BME280;43914;57.680;11.982;2023-03-19T00:28:19;100493.13;;;5.72;100.00
54872;BME280;43914;57.680;11.982;2023-03-19T00:30:45;100493.65;;;5.70;100.00
54872;BME280;43914;57.680;11.982;2023-03-19T00:33:10;100493.41;;;5.68;100.00
54872;BME280;43914;57.680;11.982;2023-03-19T00:35:38;100492.00;;;5.67;100.00
54872;BME280;43914;57.680;11.982;2023-03-19T00:38:04;100494.77;;;5.67;100.00
54872;BME280;43914;57.680;11.982;2023-03-19T00:40:30;100493.98;;;5.67;100.00
54872;BME280;43914;57.680;11.982;2023-03-19T00:42:56;100489.95;;;5.67;100.00
54872;BME280;43914;57.680;11.982;2023-03-19T00:45:21;100490.60;;;5.67;100.00
54872;BME280;43914;57.680;11.982;2023-03-19T00:47:47;100486.34;;;5.67;100.00
54872;BME280;43914;57.680;11.982;2023-03-19T00:50:12;100487.70;;;5.65;100.00
54872;BME280;43914;57.680;11.982;2023-03-19T00:52:38;100492.95;;;5.65;100.00
54872;BME280;43914;57.680;11.982;2023-03-19T00:55:04;100494.97;;;5.65;100.00
54872;BME280;43914;57.680;11.982;2023-03-19T00:57:29;100490.91;;;5.61;100.00
54872;BME280;43914;57.680;11.982;2023-03-19T00:59:55;100496.80;;;5.62;100.00
54872;BME280;43914;57.680;11.982;2023-03-19T01:02:20;100495.61;;;5.62;100.00
54872;BME280;43914;57.680;11.982;2023-03-19T01:04:49;100498.29;;;5.60;100.00
54872;BME280;43914;57.680;11.982;2023-03-19T01:07:15;100501.42;;;5.60;100.00
54872;BME280;43914;57.680;11.982;2023-03-19T01:09:40;100501.33;;;5.61;100.00
54872;BME280;43914;57.680;11.982;2023-03-19T01:12:07;100499.91;;;5.61;100.00
54872;BME280;43914;57.680;11.982;2023-03-19T01:14:33;100503.87;;;5.61;100.00
54872;BME280;43914;57.680;11.982;2023-03-19T01:16:59;100502.83;;;5.60;100.00
54872;BME280;43914;57.680;11.982;2023-03-19T01:19:25;100501.34;;;5.61;100.00
54872;BME280;43914;57.680;11.982;2023-03-19T01:21:54;100496.86;;;5.60;100.00
54872;BME280;43914;57.680;11.982;2023-03-19T01:24:20;100499.06;;;5.59;100.00
54872;BME280;43914;57.680;11.982;2023-03-19T01:26:46;100501.83;;;5.60;100.00
54872;BME280;43914;57.680;11.982;2023-03-19T01:29:11;100498.17;;;5.61;100.00
54872;BME280;43914;57.680;11.982;2023-03-19T01:31:36;100502.23;;;5.61;100.00
54872;BME280;43914;57.680;11.982;2023-03-19T01:34:02;100500.02;;;5.60;100.00
54872;BME280;43914;57.680;11.982;2023-03-19T01:36:28;100505.38;;;5.62;100.00
54872;BME280;43914;57.680;11.982;2023-03-19T01:38:54;100500.23;;;5.60;100.00
54872;BME280;43914;57.680;11.982;2023-03-19T01:41:21;100499.76;;;5.58;100.00
54872;BME280;43914;57.680;11.982;2023-03-19T01:43:47;100498.31;;;5.56;100.00
54872;BME280;43914;57.680;11.982;2023-03-19T01:48:47;100495.27;;;5.53;100.00
54872;BME280;43914;57.680;11.982;2023-03-19T01:51:20;100493.52;;;5.51;100.00
54872;BME280;43914;57.680;11.982;2023-03-19T01:53:51;100495.31;;;5.51;100.00
54872;BME280;43914;57.680;11.982;2023-03-19T01:56:24;100491.38;;;5.49;100.00
54872;BME280;43914;57.680;11.982;2023-03-19T01:58:55;100494.03;;;5.47;100.00
54872;BME280;43914;57.680;11.982;2023-03-19T02:01:22;100493.70;;;5.47;100.00
54872;BME280;43914;57.680;11.982;2023-03-19T02:03:49;100489.88;;;5.48;100.00
54872;BME280;43914;57.680;11.982;2023-03-19T02:06:17;100493.54;;;5.49;100.00
54872;BME280;43914;57.680;11.982;2023-03-19T02:08:45;100495.06;;;5.48;100.00
54872;BME280;43914;57.680;11.982;2023-03-19T02:11:11;100495.90;;;5.48;100.00
54872;BME280;43914;57.680;11.982;2023-03-19T02:13:36;100497.31;;;5.48;100.00
54872;BME280;43914;57.680;11.982;2023-03-19T02:16:03;100499.80;;;5.48;100.00
54872;BME280;43914;57.680;11.982;2023-03-19T02:18:29;100502.65;;;5.50;100.00
54872;BME280;43914;57.680;11.982;2023-03-19T02:23:50;100501.91;;;5.48;100.00
54872;BME280;43914;57.680;11.982;2023-03-19T02:26:20;100502.83;;;5.47;100.00
54872;BME280;43914;57.680;11.982;2023-03-19T02:28:47;100505.61;;;5.45;100.00
54872;BME280;43914;57.680;11.982;2023-03-19T02:31:15;100504.45;;;5.44;100.00
54872;BME280;43914;57.680;11.982;2023-03-19T02:33:41;100499.90;;;5.44;100.00
54872;BME280;43914;57.680;11.982;2023-03-19T02:36:14;100500.56;;;5.44;100.00
54872;BME280;43914;57.680;11.982;2023-03-19T02:38:42;100497.27;;;5.43;100.00
54872;BME280;43914;57.680;11.982;2023-03-19T02:41:08;100495.89;;;5.43;100.00
54872;BME280;43914;57.680;11.982;2023-03-19T02:43:37;100501.06;;;5.44;100.00
54872;BME280;43914;57.680;11.982;2023-03-19T02:46:06;100500.70;;;5.43;100.00
54872;BME280;43914;57.680;11.982;2023-03-19T02:48:32;100502.70;;;5.43;100.00
54872;BME280;43914;57.680;11.982;2023-03-19T02:50:59;100505.45;;;5.42;100.00
54872;BME280;43914;57.680;11.982;2023-03-19T02:53:24;100506.58;;;5.41;100.00
54872;BME280;43914;57.680;11.982;2023-03-19T02:55:50;100508.95;;;5.41;100.00
54872;BME280;43914;57.680;11.982;2023-03-19T02:58:15;100508.83;;;5.40;100.00
54872;BME280;43914;57.680;11.982;2023-03-19T03:00:41;100509.03;;;5.38;100.00
54872;BME280;43914;57.680;11.982;2023-03-19T03:03:07;100507.42;;;5.36;100.00
54872;BME280;43914;57.680;11.982;2023-03-19T03:05:34;100504.07;;;5.34;100.00
54872;BME280;43914;57.680;11.982;2023-03-19T03:08:00;100502.44;;;5.33;100.00
54872;BME280;43914;57.680;11.982;2023-03-19T03:10:27;100506.19;;;5.33;100.00
54872;BME280;43914;57.680;11.982;2023-03-19T03:12:53;100511.86;;;5.34;100.00
54872;BME280;43914;57.680;11.982;2023-03-19T03:15:18;100511.13;;;5.35;100.00
54872;BME280;43914;57.680;11.982;2023-03-19T03:17:44;100508.34;;;5.34;100.00
54872;BME280;43914;57.680;11.982;2023-03-19T03:20:11;100507.09;;;5.34;100.00
54872;BME280;43914;57.680;11.982;2023-03-19T03:22:39;100503.20;;;5.32;100.00
54872;BME280;43914;57.680;11.982;2023-03-19T03:25:05;100514.66;;;5.33;100.00
54872;BME280;43914;57.680;11.982;2023-03-19T03:27:31;100515.13;;;5.32;100.00
54872;BME280;43914;57.680;11.982;2023-03-19T03:29:57;100516.77;;;5.32;100.00
54872;BME280;43914;57.680;11.982;2023-03-19T03:32:23;100521.47;;;5.31;100.00
54872;BME280;43914;57.680;11.982;2023-03-19T03:34:49;100518.64;;;5.29;100.00
54872;BME280;43914;57.680;11.982;2023-03-19T03:37:14;100521.21;;;5.28;100.00
54872;BME280;43914;57.680;11.982;2023-03-19T03:39:41;100518.14;;;5.27;100.00
54872;BME280;43914;57.680;11.982;2023-03-19T03:42:07;100510.50;;;5.25;100.00
54872;BME280;43914;57.680;11.982;2023-03-19T03:44:32;100511.77;;;5.25;100.00
54872;BME280;43914;57.680;11.982;2023-03-19T03:46:58;100508.55;;;5.22;100.00
54872;BME280;43914;57.680;11.982;2023-03-19T03:49:24;100505.73;;;5.21;100.00
54872;BME280;43914;57.680;11.982;2023-03-19T03:51:50;100507.63;;;5.20;100.00
54872;BME280;43914;57.680;11.982;2023-03-19T03:54:15;100507.66;;;5.20;100.00
54872;BME280;43914;57.680;11.982;2023-03-19T03:56:43;100511.95;;;5.19;100.00
54872;BME280;43914;57.680;11.982;2023-03-19T03:59:09;100504.59;;;5.18;100.00
54872;BME280;43914;57.680;11.982;2023-03-19T04:01:34;100508.90;;;5.20;100.00
54872;BME280;43914;57.680;11.982;2023-03-19T04:04:00;100507.42;;;5.18;100.00
54872;BME280;43914;57.680;11.982;2023-03-19T04:06:26;100515.29;;;5.18;100.00
54872;BME280;43914;57.680;11.982;2023-03-19T04:08:52;100517.05;;;5.18;100.00
54872;BME280;43914;57.680;11.982;2023-03-19T04:11:18;100520.08;;;5.18;100.00
54872;BME280;43914;57.680;11.982;2023-03-19T04:13:46;100523.59;;;5.20;100.00
54872;BME280;43914;57.680;11.982;2023-03-19T04:16:12;100520.98;;;5.19;100.00
54872;BME280;43914;57.680;11.982;2023-03-19T04:18:38;100521.79;;;5.20;100.00
54872;BME280;43914;57.680;11.982;2023-03-19T04:21:04;100521.06;;;5.21;100.00
54872;BME280;43914;57.680;11.982;2023-03-19T04:23:30;100523.14;;;5.21;100.00
54872;BME280;43914;57.680;11.982;2023-03-19T04:26:01;100523.73;;;5.21;100.00
54872;BME280;43914;57.680;11.982;2023-03-19T04:28:27;100527.19;;;5.20;100.00
54872;BME280;43914;57.680;11.982;2023-03-19T04:31:01;100523.25;;;5.18;100.00
54872;BME280;43914;57.680;11.982;2023-03-19T04:33:27;100521.06;;;5.17;100.00
54872;BME280;43914;57.680;11.982;2023-03-19T04:35:54;100521.77;;;5.15;100.00
54872;BME280;43914;57.680;11.982;2023-03-19T04:38:20;100526.66;;;5.16;100.00
54872;BME280;43914;57.680;11.982;2023-03-19T04:40:47;100527.52;;;5.15;100.00
54872;BME280;43914;57.680;11.982;2023-03-19T04:43:13;100534.30;;;5.19;100.00
54872;BME280;43914;57.680;11.982;2023-03-19T04:45:40;100526.80;;;5.22;100.00
54872;BME280;43914;57.680;11.982;2023-03-19T04:48:06;100525.77;;;5.22;100.00
54872;BME280;43914;57.680;11.982;2023-03-19T04:50:32;100525.46;;;5.21;100.00
54872;BME280;43914;57.680;11.982;2023-03-19T04:52:59;100528.79;;;5.20;100.00
54872;BME280;43914;57.680;11.982;2023-03-19T04:55:24;100528.24;;;5.20;100.00
54872;BME280;43914;57.680;11.982;2023-03-19T04:57:50;100530.02;;;5.18;100.00
54872;BME280;43914;57.680;11.982;2023-03-19T05:00:16;100526.73;;;5.17;100.00
54872;BME280;43914;57.680;11.982;2023-03-19T05:02:42;100529.35;;;5.16;100.00
54872;BME280;43914;57.680;11.982;2023-03-19T05:05:08;100529.16;;;5.16;100.00
54872;BME280;43914;57.680;11.982;2023-03-19T05:07:37;100523.08;;;5.15;100.00
54872;BME280;43914;57.680;11.982;2023-03-19T05:10:03;100525.52;;;5.13;100.00
54872;BME280;43914;57.680;11.982;2023-03-19T05:12:29;100530.08;;;5.12;100.00
54872;BME280;43914;57.680;11.982;2023-03-19T05:14:54;100528.00;;;5.11;100.00
54872;BME280;43914;57.680;11.982;2023-03-19T05:17:22;100530.37;;;5.11;100.00
54872;BME280;43914;57.680;11.982;2023-03-19T05:19:48;100530.38;;;5.11;100.00
54872;BME280;43914;57.680;11.982;2023-03-19T05:22:13;100530.90;;;5.11;100.00
54872;BME280;43914;57.680;11.982;2023-03-19T05:24:39;100530.59;;;5.09;100.00
54872;BME280;43914;57.680;11.982;2023-03-19T05:27:05;100536.59;;;5.07;100.00
54872;BME280;43914;57.680;11.982;2023-03-19T05:29:31;100543.39;;;5.07;100.00
54872;BME280;43914;57.680;11.982;2023-03-19T05:31:57;100548.71;;;5.07;100.00
54872;BME280;43914;57.680;11.982;2023-03-19T05:34:24;100551.65;;;5.08;100.00
54872;BME280;43914;57.680;11.982;2023-03-19T05:36:50;100551.70;;;5.09;100.00
54872;BME280;43914;57.680;11.982;2023-03-19T05:39:16;100548.07;;;5.06;100.00
54872;BME280;43914;57.680;11.982;2023-03-19T05:41:41;100554.89;;;5.09;100.00
54872;BME280;43914;57.680;11.982;2023-03-19T05:44:07;100550.13;;;5.09;100.00
54872;BME280;43914;57.680;11.982;2023-03-19T05:46:33;100551.08;;;5.10;100.00
54872;BME280;43914;57.680;11.982;2023-03-19T05:48:58;100550.87;;;5.10;100.00
54872;BME280;43914;57.680;11.982;2023-03-19T05:51:24;100550.14;;;5.10;100.00
54872;BME280;43914;57.680;11.982;2023-03-19T05:53:50;100551.59;;;5.12;100.00
54872;BME280;43914;57.680;11.982;2023-03-19T05:56:15;100553.17;;;5.14;100.00
54872;BME280;43914;57.680;11.982;2023-03-19T05:58:41;100552.55;;;5.15;100.00
54872;BME280;43914;57.680;11.982;2023-03-19T06:01:06;100549.31;;;5.17;100.00
54872;BME280;43914;57.680;11.982;2023-03-19T06:03:32;100552.48;;;5.19;100.00
54872;BME280;43914;57.680;11.982;2023-03-19T06:05:57;100555.38;;;5.18;100.00
54872;BME280;43914;57.680;11.982;2023-03-19T06:08:23;100556.71;;;5.17;100.00
54872;BME280;43914;57.680;11.982;2023-03-19T06:10:51;100557.27;;;5.17;100.00
54872;BME280;43914;57.680;11.982;2023-03-19T06:13:17;100558.58;;;5.18;100.00
54872;BME280;43914;57.680;11.982;2023-03-19T06:15:42;100558.77;;;5.20;100.00
54872;BME280;43914;57.680;11.982;2023-03-19T06:18:08;100562.93;;;5.21;100.00
54872;BME280;43914;57.680;11.982;2023-03-19T06:20:33;100565.63;;;5.21;100.00
54872;BME280;43914;57.680;11.982;2023-03-19T06:22:59;100565.59;;;5.21;100.00
54872;BME280;43914;57.680;11.982;2023-03-19T06:25:24;100563.23;;;5.22;100.00
54872;BME280;43914;57.680;11.982;2023-03-19T06:27:50;100567.63;;;5.22;100.00
54872;BME280;43914;57.680;11.982;2023-03-19T06:30:15;100565.13;;;5.23;100.00
54872;BME280;43914;57.680;11.982;2023-03-19T06:32:41;100564.23;;;5.23;100.00
54872;BME280;43914;57.680;11.982;2023-03-19T06:35:07;100568.48;;;5.21;100.00
54872;BME280;43914;57.680;11.982;2023-03-19T06:37:33;100569.67;;;5.19;100.00
54872;BME280;43914;57.680;11.982;2023-03-19T06:39:58;100574.52;;;5.21;100.00
54872;BME280;43914;57.680;11.982;2023-03-19T06:42:24;100578.23;;;5.23;100.00
54872;BME280;43914;57.680;11.982;2023-03-19T06:44:50;100579.31;;;5.25;100.00
54872;BME280;43914;57.680;11.982;2023-03-19T06:47:15;100576.19;;;5.27;100.00
54872;BME280;43914;57.680;11.982;2023-03-19T06:49:41;100578.25;;;5.30;100.00
54872;BME280;43914;57.680;11.982;2023-03-19T06:52:06;100581.36;;;5.32;100.00
54872;BME280;43914;57.680;11.982;2023-03-19T06:54:32;100585.55;;;5.35;100.00
54872;BME280;43914;57.680;11.982;2023-03-19T06:56:58;100591.10;;;5.36;100.00
54872;BME280;43914;57.680;11.982;2023-03-19T06:59:24;100594.08;;;5.39;100.00
54872;BME280;43914;57.680;11.982;2023-03-19T07:01:50;100595.12;;;5.39;100.00
54872;BME280;43914;57.680;11.982;2023-03-19T07:04:17;100597.79;;;5.41;100.00
54872;BME280;43914;57.680;11.982;2023-03-19T07:06:43;100590.99;;;5.41;100.00
54872;BME280;43914;57.680;11.982;2023-03-19T07:09:09;100590.11;;;5.43;100.00
54872;BME280;43914;57.680;11.982;2023-03-19T07:11:34;100589.33;;;5.45;100.00
54872;BME280;43914;57.680;11.982;2023-03-19T07:14:00;100588.17;;;5.48;100.00
54872;BME280;43914;57.680;11.982;2023-03-19T07:16:25;100591.13;;;5.52;100.00
54872;BME280;43914;57.680;11.982;2023-03-19T07:18:51;100591.42;;;5.56;100.00
54872;BME280;43914;57.680;11.982;2023-03-19T07:21:16;100594.64;;;5.59;100.00
54872;BME280;43914;57.680;11.982;2023-03-19T07:23:42;100594.50;;;5.63;100.00
54872;BME280;43914;57.680;11.982;2023-03-19T07:26:07;100593.73;;;5.66;100.00
54872;BME280;43914;57.680;11.982;2023-03-19T07:28:32;100590.14;;;5.68;100.00
54872;BME280;43914;57.680;11.982;2023-03-19T07:30:59;100590.41;;;5.70;100.00
54872;BME280;43914;57.680;11.982;2023-03-19T07:33:24;100594.39;;;5.71;100.00
54872;BME280;43914;57.680;11.982;2023-03-19T07:35:50;100595.85;;;5.74;100.00
54872;BME280;43914;57.680;11.982;2023-03-19T07:38:16;100592.58;;;5.78;100.00
54872;BME280;43914;57.680;11.982;2023-03-19T07:40:41;100589.80;;;5.82;100.00
54872;BME280;43914;57.680;11.982;2023-03-19T07:43:07;100587.14;;;5.83;100.00
54872;BME280;43914;57.680;11.982;2023-03-19T07:45:32;100584.48;;;5.85;100.00
54872;BME280;43914;57.680;11.982;2023-03-19T07:47:58;100581.11;;;5.86;100.00
54872;BME280;43914;57.680;11.982;2023-03-19T07:50:28;100582.80;;;5.89;100.00
54872;BME280;43914;57.680;11.982;2023-03-19T07:52:54;100582.89;;;5.92;100.00
54872;BME280;43914;57.680;11.982;2023-03-19T07:55:20;100578.88;;;5.96;100.00
54872;BME280;43914;57.680;11.982;2023-03-19T07:57:46;100575.23;;;5.97;100.00
54872;BME280;43914;57.680;11.982;2023-03-19T08:00:12;100579.13;;;5.94;100.00
54872;BME280;43914;57.680;11.982;2023-03-19T08:02:37;100579.07;;;5.89;100.00
54872;BME280;43914;57.680;11.982;2023-03-19T08:05:03;100576.55;;;5.87;100.00
54872;BME280;43914;57.680;11.982;2023-03-19T08:07:29;100575.75;;;5.85;100.00
54872;BME280;43914;57.680;11.982;2023-03-19T08:09:56;100580.27;;;5.88;100.00
54872;BME280;43914;57.680;11.982;2023-03-19T08:12:23;100584.55;;;5.89;100.00
54872;BME280;43914;57.680;11.982;2023-03-19T08:14:49;100581.23;;;5.94;100.00
54872;BME280;43914;57.680;11.982;2023-03-19T08:17:15;100580.48;;;5.92;100.00
54872;BME280;43914;57.680;11.982;2023-03-19T08:19:41;100582.55;;;5.95;100.00
54872;BME280;43914;57.680;11.982;2023-03-19T08:22:07;100585.51;;;6.01;100.00
54872;BME280;43914;57.680;11.982;2023-03-19T08:24:32;100588.17;;;6.08;100.00
54872;BME280;43914;57.680;11.982;2023-03-19T08:26:58;100588.52;;;6.17;100.00
54872;BME280;43914;57.680;11.982;2023-03-19T08:29:24;100587.41;;;6.26;100.00
54872;BME280;43914;57.680;11.982;2023-03-19T08:31:53;100582.45;;;6.38;100.00
54872;BME280;43914;57.680;11.982;2023-03-19T08:34:19;100577.79;;;6.47;100.00
54872;BME280;43914;57.680;11.982;2023-03-19T08:36:46;100577.23;;;6.57;100.00
54872;BME280;43914;57.680;11.982;2023-03-19T08:39:11;100573.59;;;6.67;100.00
54872;BME280;43914;57.680;11.982;2023-03-19T08:41:37;100572.50;;;6.70;100.00
54872;BME280;43914;57.680;11.982;2023-03-19T08:44:02;100572.02;;;6.75;100.00
54872;BME280;43914;57.680;11.982;2023-03-19T08:46:28;100571.63;;;6.77;100.00
54872;BME280;43914;57.680;11.982;2023-03-19T08:48:53;100575.90;;;6.77;100.00
54872;BME280;43914;57.680;11.982;2023-03-19T08:51:19;100579.35;;;6.81;100.00
54872;BME280;43914;57.680;11.982;2023-03-19T08:53:45;100576.42;;;6.89;100.00
54872;BME280;43914;57.680;11.982;2023-03-19T08:56:11;100576.86;;;7.00;100.00
54872;BME280;43914;57.680;11.982;2023-03-19T08:58:36;100572.77;;;7.08;100.00
54872;BME280;43914;57.680;11.982;2023-03-19T09:01:07;100572.45;;;7.13;100.00
54872;BME280;43914;57.680;11.982;2023-03-19T09:03:35;100571.05;;;7.21;100.00
54872;BME280;43914;57.680;11.982;2023-03-19T09:06:03;100574.29;;;7.32;100.00
54872;BME280;43914;57.680;11.982;2023-03-19T09:08:29;100574.20;;;7.41;100.00
54872;BME280;43914;57.680;11.982;2023-03-19T09:10:56;100573.19;;;7.42;100.00
54872;BME280;43914;57.680;11.982;2023-03-19T09:13:22;100570.20;;;7.47;100.00
54872;BME280;43914;57.680;11.982;2023-03-19T09:15:49;100568.34;;;7.54;100.00
54872;BME280;43914;57.680;11.982;2023-03-19T09:18:15;100568.05;;;7.62;100.00
54872;BME280;43914;57.680;11.982;2023-03-19T09:20:41;100574.36;;;7.71;100.00
54872;BME280;43914;57.680;11.982;2023-03-19T09:23:07;100568.30;;;7.77;100.00
54872;BME280;43914;57.680;11.982;2023-03-19T09:25:33;100572.87;;;7.80;100.00
54872;BME280;43914;57.680;11.982;2023-03-19T09:27:58;100568.02;;;7.82;100.00
54872;BME280;43914;57.680;11.982;2023-03-19T09:30:24;100569.35;;;7.86;100.00
54872;BME280;43914;57.680;11.982;2023-03-19T09:32:49;100570.39;;;7.94;100.00
54872;BME280;43914;57.680;11.982;2023-03-19T09:35:15;100567.38;;;7.94;100.00
54872;BME280;43914;57.680;11.982;2023-03-19T09:37:40;100575.21;;;7.98;100.00
54872;BME280;43914;57.680;11.982;2023-03-19T09:40:08;100581.45;;;8.04;100.00
54872;BME280;43914;57.680;11.982;2023-03-19T09:42:52;100582.48;;;8.11;100.00
54872;BME280;43914;57.680;11.982;2023-03-19T09:45:21;100588.89;;;8.20;100.00
54872;BME280;43914;57.680;11.982;2023-03-19T09:47:51;100589.79;;;8.22;100.00
54872;BME280;43914;57.680;11.982;2023-03-19T09:50:22;100585.65;;;8.19;100.00
54872;BME280;43914;57.680;11.982;2023-03-19T09:57:57;100588.22;;;8.01;100.00
54872;BME280;43914;57.680;11.982;2023-03-19T10:00:33;100585.69;;;7.98;100.00
54872;BME280;43914;57.680;11.982;2023-03-19T10:13:53;100585.61;;;7.81;100.00
54872;BME280;43914;57.680;11.982;2023-03-19T10:16:23;100582.09;;;7.85;100.00
54872;BME280;43914;57.680;11.982;2023-03-19T10:18:53;100584.81;;;7.95;100.00
54872;BME280;43914;57.680;11.982;2023-03-19T10:26:33;100589.52;;;8.44;100.00
54872;BME280;43914;57.680;11.982;2023-03-19T10:34:31;100583.98;;;8.42;100.00
54872;BME280;43914;57.680;11.982;2023-03-19T10:39:33;100582.95;;;8.88;100.00
54872;BME280;43914;57.680;11.982;2023-03-19T10:42:03;100583.61;;;9.18;100.00
54872;BME280;43914;57.680;11.982;2023-03-19T10:44:47;100578.81;;;9.19;100.00
54872;BME280;43914;57.680;11.982;2023-03-19T10:47:15;100584.96;;;9.13;100.00
54872;BME280;43914;57.680;11.982;2023-03-19T10:49:43;100586.88;;;9.02;100.00
54872;BME280;43914;57.680;11.982;2023-03-19T10:52:28;100585.14;;;8.92;100.00
54872;BME280;43914;57.680;11.982;2023-03-19T10:55:22;100586.48;;;9.01;100.00
54872;BME280;43914;57.680;11.982;2023-03-19T10:57:48;100587.31;;;9.01;100.00
54872;BME280;43914;57.680;11.982;2023-03-19T11:00:18;100586.94;;;8.93;100.00
54872;BME280;43914;57.680;11.982;2023-03-19T11:02:52;100586.30;;;8.88;100.00
54872;BME280;43914;57.680;11.982;2023-03-19T11:05:29;100586.08;;;8.84;100.00
54872;BME280;43914;57.680;11.982;2023-03-19T11:08:18;100588.77;;;8.77;100.00
54872;BME280;43914;57.680;11.982;2023-03-19T11:10:47;100587.88;;;8.74;100.00
54872;BME280;43914;57.680;11.982;2023-03-19T11:13:22;100581.23;;;8.68;100.00
54872;BME280;43914;57.680;11.982;2023-03-19T11:15:49;100584.02;;;8.69;100.00
54872;BME280;43914;57.680;11.982;2023-03-19T11:18:26;100580.60;;;8.64;100.00
54872;BME280;43914;57.680;11.982;2023-03-19T11:21:04;100581.27;;;8.59;100.00
54872;BME280;43914;57.680;11.982;2023-03-19T11:23:38;100581.83;;;8.54;100.00
54872;BME280;43914;57.680;11.982;2023-03-19T11:26:04;100584.64;;;8.49;100.00
54872;BME280;43914;57.680;11.982;2023-03-19T11:28:30;100581.71;;;8.44;100.00
54872;BME280;43914;57.680;11.982;2023-03-19T11:31:24;100587.41;;;8.44;100.00
54872;BME280;43914;57.680;11.982;2023-03-19T11:34:19;100586.55;;;8.45;100.00
54872;BME280;43914;57.680;11.982;2023-03-19T11:39:27;100580.30;;;8.50;100.00
54872;BME280;43914;57.680;11.982;2023-03-19T11:50:08;100575.40;;;8.84;100.00
54872;BME280;43914;57.680;11.982;2023-03-19T11:53:03;100575.98;;;8.94;100.00
54872;BME280;43914;57.680;11.982;2023-03-19T12:00:50;100559.85;;;9.26;100.00
54872;BME280;43914;57.680;11.982;2023-03-19T12:05:58;100558.93;;;9.20;100.00
54872;BME280;43914;57.680;11.982;2023-03-19T12:14:01;100547.21;;;9.45;100.00
54872;BME280;43914;57.680;11.982;2023-03-19T12:27:54;100524.73;;;10.04;100.00
54872;BME280;43914;57.680;11.982;2023-03-19T12:36:05;100521.00;;;10.36;100.00
54872;BME280;43914;57.680;11.982;2023-03-19T12:38:38;100522.27;;;10.40;100.00
54872;BME280;43914;57.680;11.982;2023-03-19T12:41:10;100525.65;;;10.45;100.00
54872;BME280;43914;57.680;11.982;2023-03-19T12:43:56;100526.91;;;10.44;100.00
54872;BME280;43914;57.680;11.982;2023-03-19T12:49:15;100523.97;;;10.53;100.00
54872;BME280;43914;57.680;11.982;2023-03-19T12:51:46;100520.31;;;10.60;100.00
54872;BME280;43914;57.680;11.982;2023-03-19T12:54:18;100522.25;;;10.67;100.00
54872;BME280;43914;57.680;11.982;2023-03-19T12:56:53;100521.36;;;10.75;100.00
54872;BME280;43914;57.680;11.982;2023-03-19T13:05:00;100503.26;;;10.85;100.00
54872;BME280;43914;57.680;11.982;2023-03-19T13:07:44;100498.33;;;10.81;100.00
54872;BME280;43914;57.680;11.982;2023-03-19T13:10:20;100499.44;;;10.84;100.00
54872;BME280;43914;57.680;11.982;2023-03-19T13:12:47;100500.98;;;10.77;100.00
54872;BME280;43914;57.680;11.982;2023-03-19T13:15:32;100496.71;;;10.72;100.00
54872;BME280;43914;57.680;11.982;2023-03-19T13:23:46;100471.90;;;10.58;100.00
54872;BME280;43914;57.680;11.982;2023-03-19T13:26:13;100484.95;;;10.72;100.00
54872;BME280;43914;57.680;11.982;2023-03-19T13:28:59;100479.33;;;10.71;100.00
54872;BME280;43914;57.680;11.982;2023-03-19T13:31:26;100479.30;;;10.73;100.00
54872;BME280;43914;57.680;11.982;2023-03-19T13:36:44;100481.15;;;10.71;100.00
54872;BME280;43914;57.680;11.982;2023-03-19T13:39:25;100488.10;;;10.66;100.00
54872;BME280;43914;57.680;11.982;2023-03-19T13:47:34;100481.27;;;10.57;100.00
54872;BME280;43914;57.680;11.982;2023-03-19T13:57:57;100470.11;;;10.66;100.00
54872;BME280;43914;57.680;11.982;2023-03-19T14:03:22;100472.91;;;10.61;100.00
54872;BME280;43914;57.680;11.982;2023-03-19T14:05:50;100468.48;;;10.60;100.00
54872;BME280;43914;57.680;11.982;2023-03-19T14:08:43;100471.19;;;10.61;100.00
54872;BME280;43914;57.680;11.982;2023-03-19T14:11:21;100472.61;;;10.56;100.00
54872;BME280;43914;57.680;11.982;2023-03-19T14:13:48;100466.77;;;10.46;100.00
54872;BME280;43914;57.680;11.982;2023-03-19T14:16:40;100472.11;;;10.36;100.00
54872;BME280;43914;57.680;11.982;2023-03-19T14:19:11;100466.52;;;10.23;100.00
54872;BME280;43914;57.680;11.982;2023-03-19T14:22:09;100459.48;;;10.15;100.00
54872;BME280;43914;57.680;11.982;2023-03-19T14:24:54;100459.46;;;10.13;100.00
54872;BME280;43914;57.680;11.982;2023-03-19T14:27:34;100454.17;;;10.14;100.00
54872;BME280;43914;57.680;11.982;2023-03-19T14:30:06;100454.19;;;10.17;100.00
54872;BME280;43914;57.680;11.982;2023-03-19T14:32:36;100457.29;;;10.15;100.00